createdAt,value
2023-05-25T00:01:01.076Z,6.90
2023-05-25T00:02:35.038Z,6.50
2023-05-25T00:04:07.333Z,6.50
2023-05-25T00:05:40.193Z,6.55
2023-05-25T00:07:12.351Z,6.60
2023-05-25T00:08:46.189Z,6.80
2023-05-25T00:10:18.276Z,6.68
2023-05-25T00:11:50.596Z,6.72
2023-05-25T00:13:22.734Z,6.53
2023-05-25T00:14:54.894Z,7.10
2023-05-25T00:16:27.295Z,7.05
2023-05-25T00:17:59.530Z,6.67
2023-05-25T00:19:34.725Z,6.90
2023-05-25T00:21:07.747Z,6.40
2023-05-25T00:22:40.042Z,6.50
2023-05-25T00:24:12.385Z,6.20
2023-05-25T00:25:44.837Z,6.70
2023-05-25T00:27:17.307Z,6.82
2023-05-25T00:28:49.495Z,6.70
2023-05-25T00:30:21.715Z,6.80
2023-05-25T00:31:54.517Z,6.70
2023-05-25T00:33:26.665Z,6.70
2023-05-25T00:34:58.774Z,6.68
2023-05-25T00:36:30.958Z,6.50
2023-05-25T00:39:42.759Z,6.90
2023-05-25T00:41:17.627Z,6.78
2023-05-25T00:42:49.828Z,6.53
2023-05-25T00:44:22.227Z,6.40
2023-05-25T00:45:55.052Z,6.70
2023-05-25T00:47:28.156Z,6.32
2023-05-25T00:49:00.385Z,6.55
2023-05-25T00:50:43.079Z,6.90
2023-05-25T00:52:16.046Z,6.95
2023-05-25T00:53:48.219Z,6.38
2023-05-25T00:55:20.741Z,6.32
2023-05-25T00:57:06.340Z,6.20
2023-05-25T00:58:41.689Z,6.80
2023-05-25T01:00:15.124Z,6.53
2023-05-25T01:01:48.108Z,6.45
2023-05-25T01:03:22.364Z,6.35
2023-05-25T01:04:55.414Z,7.10
2023-05-25T01:06:32.367Z,6.45
2023-05-25T01:08:05.916Z,6.22
2023-05-25T01:09:42.592Z,6.30
2023-05-25T01:11:14.883Z,6.63
2023-05-25T01:12:47.272Z,6.57
2023-05-25T01:14:22.416Z,6.68
2023-05-25T01:15:54.584Z,6.40
2023-05-25T01:17:29.504Z,6.30
2023-05-25T01:19:01.721Z,6.50
2023-05-25T01:20:34.127Z,6.30
2023-05-25T01:22:09.192Z,5.77
2023-05-25T01:23:48.701Z,6.45
2023-05-25T01:25:23.557Z,6.15
2023-05-25T01:27:10.591Z,6.38
2023-05-25T01:28:47.749Z,6.22
2023-05-25T01:30:20.576Z,6.53
2023-05-25T01:31:54.846Z,6.05
2023-05-25T01:33:28.267Z,6.43
2023-05-25T01:36:33.609Z,6.25
2023-05-25T01:38:06.260Z,6.38
2023-05-25T01:39:38.721Z,6.18
2023-05-25T01:41:10.960Z,6.00
2023-05-25T01:42:43.227Z,6.50
2023-05-25T01:44:15.948Z,6.40
2023-05-25T01:45:48.396Z,6.65
2023-05-25T01:47:33.712Z,6.30
2023-05-25T01:49:28.481Z,6.55
2023-05-25T01:51:07.540Z,6.35
2023-05-25T01:52:44.445Z,6.20
2023-05-25T01:54:20.601Z,6.00
2023-05-25T01:56:04.814Z,6.60
2023-05-25T01:57:38.473Z,6.25
2023-05-25T01:59:11.472Z,5.90
2023-05-25T02:00:43.727Z,6.28
2023-05-25T02:02:19.095Z,5.57
2023-05-25T02:03:52.347Z,6.13
2023-05-25T02:05:24.479Z,6.20
2023-05-25T02:06:57.192Z,5.93
2023-05-25T02:08:29.430Z,6.22
2023-05-25T02:10:01.675Z,6.63
2023-05-25T02:11:36.993Z,6.70
2023-05-25T02:13:09.123Z,6.65
2023-05-25T02:14:41.701Z,6.32
2023-05-25T02:16:13.920Z,6.03
2023-05-25T02:17:46.112Z,6.35
2023-05-25T02:19:18.473Z,5.85
2023-05-25T02:20:50.736Z,6.20
2023-05-25T02:22:23.164Z,6.10
2023-05-25T02:23:55.392Z,6.25
2023-05-25T02:25:27.628Z,6.10
2023-05-25T02:26:59.797Z,6.25
2023-05-25T02:28:31.975Z,6.30
2023-05-25T02:30:04.524Z,6.22
2023-05-25T02:31:39.211Z,6.03
2023-05-25T02:33:12.031Z,6.43
2023-05-25T02:34:44.176Z,6.65
2023-05-25T02:36:16.898Z,6.28
2023-05-25T02:37:51.131Z,6.15
2023-05-25T02:39:26.839Z,6.80
2023-05-25T02:40:58.960Z,6.72
2023-05-25T02:42:31.147Z,6.28
2023-05-25T02:44:03.477Z,6.70
2023-05-25T02:45:35.827Z,6.47
2023-05-25T02:47:08.203Z,6.45
2023-05-25T02:48:42.629Z,6.25
2023-05-25T02:50:14.859Z,6.35
2023-05-25T02:51:46.976Z,6.28
2023-05-25T02:53:19.193Z,6.22
2023-05-25T02:54:51.398Z,6.60
2023-05-25T02:56:23.677Z,6.40
2023-05-25T02:57:55.954Z,6.28
2023-05-25T02:59:28.205Z,6.55
2023-05-25T03:01:00.687Z,5.82
2023-05-25T03:02:33.205Z,6.47
2023-05-25T03:04:05.516Z,6.30
2023-05-25T03:05:38.890Z,6.40
2023-05-25T03:08:43.176Z,6.15
2023-05-25T03:10:15.431Z,6.57
2023-05-25T03:11:47.728Z,6.10
2023-05-25T03:13:19.919Z,5.97
2023-05-25T03:14:52.089Z,6.10
2023-05-25T03:16:24.291Z,6.47
2023-05-25T03:18:01.576Z,6.18
2023-05-25T03:19:34.005Z,6.32
2023-05-25T03:21:06.651Z,6.68
2023-05-25T03:22:38.829Z,6.53
2023-05-25T03:24:11.024Z,6.40
2023-05-25T03:25:43.572Z,6.85
2023-05-25T03:27:15.896Z,6.57
2023-05-25T03:28:48.082Z,6.55
2023-05-25T03:30:24.008Z,6.88
2023-05-25T03:31:56.215Z,6.60
2023-05-25T03:33:28.450Z,6.95
2023-05-25T03:35:00.792Z,7.00
2023-05-25T03:36:34.215Z,6.40
2023-05-25T03:39:38.514Z,7.47
2023-05-25T03:41:10.765Z,6.13
2023-05-25T03:42:42.948Z,7.10
2023-05-25T03:44:15.095Z,7.30
2023-05-25T03:45:47.656Z,7.28
2023-05-25T03:47:20.408Z,7.28
2023-05-25T03:48:52.542Z,6.57
2023-05-25T03:50:24.747Z,7.32
2023-05-25T03:51:57.088Z,7.03
2023-05-25T03:53:29.281Z,6.95
2023-05-25T03:55:02.260Z,7.20
2023-05-25T03:56:34.398Z,6.47
2023-05-25T03:58:06.562Z,6.93
2023-05-25T03:59:38.691Z,6.70
2023-05-25T04:01:11.892Z,6.18
2023-05-25T04:02:44.124Z,6.97
2023-05-25T04:04:16.436Z,7.18
2023-05-25T04:05:48.640Z,7.15
2023-05-25T04:07:21.206Z,7.40
2023-05-25T04:08:53.614Z,7.15
2023-05-25T04:10:25.861Z,7.25
2023-05-25T04:11:58.005Z,7.47
2023-05-25T04:13:30.113Z,7.45
2023-05-25T04:15:04.961Z,8.55
2023-05-25T04:16:37.711Z,7.13
2023-05-25T04:18:12.426Z,6.80
2023-05-25T04:19:44.693Z,6.70
2023-05-25T04:21:17.154Z,6.70
2023-05-25T04:22:50.399Z,7.27
2023-05-25T04:24:23.067Z,6.72
2023-05-25T04:25:55.282Z,6.38
2023-05-25T04:27:28.821Z,6.38
2023-05-25T04:29:02.409Z,6.63
2023-05-25T04:30:36.160Z,7.00
2023-05-25T04:32:10.022Z,6.68
2023-05-25T04:33:42.243Z,7.07
2023-05-25T04:35:21.346Z,7.45
2023-05-25T04:36:54.191Z,6.90
2023-05-25T04:38:26.504Z,7.13
2023-05-25T04:39:58.841Z,6.70
2023-05-25T04:41:31.051Z,7.22
2023-05-25T04:43:05.514Z,7.20
2023-05-25T04:44:38.135Z,6.97
2023-05-25T04:46:10.363Z,6.22
2023-05-25T04:47:43.472Z,6.63
2023-05-25T04:49:17.336Z,6.68
2023-05-25T04:50:49.485Z,6.85
2023-05-25T04:52:21.616Z,6.47
2023-05-25T04:53:53.732Z,6.82
2023-05-25T04:55:26.063Z,7.95
2023-05-25T04:56:58.273Z,8.65
2023-05-25T04:58:30.489Z,9.98
2023-05-25T05:00:02.648Z,10.90
2023-05-25T05:01:41.429Z,9.90
2023-05-25T05:03:14.381Z,11.48
2023-05-25T05:04:46.640Z,9.23
2023-05-25T05:06:18.791Z,7.72
2023-05-25T05:07:51.055Z,8.40
2023-05-25T05:09:23.165Z,8.07
2023-05-25T05:10:55.462Z,9.40
2023-05-25T05:12:27.615Z,8.45
2023-05-25T05:13:59.800Z,8.32
2023-05-25T05:15:32.053Z,8.18
2023-05-25T05:17:04.998Z,8.32
2023-05-25T05:18:37.170Z,7.43
2023-05-25T05:20:09.702Z,7.35
2023-05-25T05:21:41.952Z,7.97
2023-05-25T05:23:14.244Z,7.70
2023-05-25T05:24:46.389Z,8.50
2023-05-25T05:26:18.628Z,8.38
2023-05-25T05:27:50.932Z,8.15
2023-05-25T05:29:23.223Z,7.40
2023-05-25T05:30:55.580Z,8.35
2023-05-25T05:32:27.756Z,8.85
2023-05-25T05:34:00.027Z,9.20
2023-05-25T05:35:32.331Z,8.70
2023-05-25T05:37:04.549Z,7.70
2023-05-25T05:38:37.611Z,7.97
2023-05-25T05:40:12.248Z,8.88
2023-05-25T05:41:45.880Z,8.85
2023-05-25T05:43:18.052Z,7.68
2023-05-25T05:44:50.236Z,7.80
2023-05-25T05:46:22.388Z,8.35
2023-05-25T05:47:54.589Z,8.20
2023-05-25T05:49:28.185Z,8.30
2023-05-25T05:51:00.328Z,8.30
2023-05-25T05:52:32.511Z,8.48
2023-05-25T05:54:05.344Z,8.93
2023-05-25T05:55:37.820Z,8.68
2023-05-25T05:57:09.993Z,8.40
2023-05-25T05:58:42.149Z,8.00
2023-05-25T06:00:15.157Z,7.80
2023-05-25T06:01:47.380Z,7.18
2023-05-25T06:03:19.668Z,7.95
2023-05-25T06:04:51.835Z,8.70
2023-05-25T06:06:24.069Z,8.32
2023-05-25T06:07:56.294Z,8.30
2023-05-25T06:09:28.418Z,7.75
2023-05-25T06:11:00.540Z,7.78
2023-05-25T06:12:32.774Z,8.32
2023-05-25T06:14:04.988Z,8.02
2023-05-25T06:15:37.387Z,8.80
2023-05-25T06:17:09.635Z,8.27
2023-05-25T06:18:42.034Z,7.50
2023-05-25T06:20:15.472Z,8.20
2023-05-25T06:21:49.960Z,7.78
2023-05-25T06:23:22.162Z,7.82
2023-05-25T06:24:54.540Z,7.32
2023-05-25T06:26:27.736Z,7.05
2023-05-25T06:27:59.975Z,7.15
2023-05-25T06:29:32.232Z,7.50
2023-05-25T06:31:04.420Z,8.15
2023-05-25T06:32:36.595Z,8.60
2023-05-25T06:34:08.768Z,8.52
2023-05-25T06:35:40.973Z,8.05
2023-05-25T06:37:13.174Z,8.68
2023-05-25T06:38:45.294Z,8.90
2023-05-25T06:40:18.440Z,8.85
2023-05-25T06:41:51.571Z,9.00
2023-05-25T06:43:23.780Z,8.63
2023-05-25T06:44:55.921Z,9.05
2023-05-25T06:46:28.163Z,8.13
2023-05-25T06:48:00.673Z,8.00
2023-05-25T06:49:33.258Z,7.93
2023-05-25T06:51:05.620Z,8.43
2023-05-25T06:52:37.797Z,7.93
2023-05-25T06:54:10.025Z,8.40
2023-05-25T06:55:42.379Z,8.30
2023-05-25T06:57:14.656Z,8.17
2023-05-25T06:58:46.797Z,9.00
2023-05-25T07:00:19.507Z,9.00
2023-05-25T07:01:51.893Z,8.88
2023-05-25T07:03:24.281Z,8.23
2023-05-25T07:04:56.468Z,8.20
2023-05-25T07:06:28.722Z,8.07
2023-05-25T07:08:00.866Z,7.65
2023-05-25T07:09:33.487Z,8.05
2023-05-25T07:11:05.774Z,7.47
2023-05-25T07:12:37.952Z,8.75
2023-05-25T07:14:10.109Z,7.53
2023-05-25T07:15:42.564Z,8.10
2023-05-25T07:17:17.263Z,7.13
2023-05-25T07:18:49.435Z,8.57
2023-05-25T07:20:22.569Z,8.40
2023-05-25T07:21:54.811Z,7.40
2023-05-25T07:23:26.965Z,8.15
2023-05-25T07:24:59.172Z,8.82
2023-05-25T07:26:32.541Z,7.70
2023-05-25T07:29:36.920Z,7.32
2023-05-25T07:31:10.603Z,6.97
2023-05-25T07:32:42.957Z,7.07
2023-05-25T07:34:15.674Z,7.80
2023-05-25T07:35:47.787Z,7.13
2023-05-25T07:37:19.979Z,7.07
2023-05-25T07:38:52.126Z,7.15
2023-05-25T07:40:24.304Z,7.70
2023-05-25T07:41:56.433Z,6.47
2023-05-25T07:43:28.604Z,7.50
2023-05-25T07:45:01.733Z,6.32
2023-05-25T07:46:34.003Z,6.68
2023-05-25T07:48:08.072Z,5.80
2023-05-25T07:49:40.303Z,5.60
2023-05-25T07:51:12.598Z,5.43
2023-05-25T07:52:44.964Z,5.22
2023-05-25T07:54:17.134Z,5.47
2023-05-25T07:55:49.345Z,5.93
2023-05-25T07:57:21.901Z,5.70
2023-05-25T07:58:54.062Z,6.82
2023-05-25T08:00:26.228Z,7.15
2023-05-25T08:01:58.410Z,6.78
2023-05-25T08:03:47.407Z,6.82
2023-05-25T08:05:21.592Z,7.47
2023-05-25T08:06:53.959Z,6.72
2023-05-25T08:08:29.341Z,6.70
2023-05-25T08:10:01.698Z,6.60
2023-05-25T08:11:33.912Z,6.30
2023-05-25T08:13:06.418Z,6.70
2023-05-25T08:14:38.802Z,6.68
2023-05-25T08:16:11.059Z,7.30
2023-05-25T08:17:43.293Z,7.75
2023-05-25T08:19:15.449Z,6.97
2023-05-25T08:20:47.732Z,6.63
2023-05-25T08:22:20.018Z,6.50
2023-05-25T08:23:52.617Z,6.90
2023-05-25T08:25:24.723Z,6.55
2023-05-25T08:26:56.872Z,7.32
2023-05-25T08:28:28.999Z,6.60
2023-05-25T08:30:01.173Z,6.20
2023-05-25T08:31:33.945Z,6.72
2023-05-25T08:33:07.438Z,6.85
2023-05-25T08:34:39.819Z,6.20
2023-05-25T08:36:12.046Z,7.55
2023-05-25T08:37:44.528Z,6.50
2023-05-25T08:39:17.186Z,6.60
2023-05-25T08:40:56.831Z,5.20
2023-05-25T08:42:29.779Z,6.10
2023-05-25T08:44:06.759Z,5.57
2023-05-25T08:45:43.684Z,5.53
2023-05-25T08:47:18.432Z,6.45
2023-05-25T08:48:52.000Z,6.03
2023-05-25T08:50:25.873Z,6.07
2023-05-25T08:53:38.771Z,5.82
2023-05-25T08:55:11.657Z,5.78
2023-05-25T08:56:49.614Z,5.95
2023-05-25T08:58:26.190Z,6.18
2023-05-25T09:00:10.929Z,6.50
2023-05-25T09:01:46.761Z,6.40
2023-05-25T09:03:19.340Z,6.18
2023-05-25T09:04:51.554Z,6.15
2023-05-25T09:06:24.864Z,6.07
2023-05-25T09:09:29.221Z,6.18
2023-05-25T09:11:02.689Z,5.85
2023-05-25T09:12:36.097Z,6.22
2023-05-25T09:14:09.045Z,5.57
2023-05-25T09:15:41.536Z,5.85
2023-05-25T09:17:18.021Z,5.72
2023-05-25T09:18:52.173Z,6.30
2023-05-25T09:20:25.314Z,5.95
2023-05-25T09:22:13.401Z,6.45
2023-05-25T09:23:47.051Z,5.35
2023-05-25T09:25:22.671Z,6.13
2023-05-25T09:26:54.885Z,6.13
2023-05-25T09:28:27.789Z,5.47
2023-05-25T09:30:01.575Z,5.65
2023-05-25T09:31:33.791Z,6.57
2023-05-25T09:33:12.136Z,6.28
2023-05-25T09:34:45.422Z,6.03
2023-05-25T09:37:55.712Z,6.25
2023-05-25T09:39:29.253Z,5.53
2023-05-25T09:41:01.767Z,5.93
2023-05-25T09:42:37.287Z,6.78
2023-05-25T09:44:11.765Z,6.60
2023-05-25T09:45:44.625Z,6.85
2023-05-25T09:47:18.542Z,6.78
2023-05-25T09:48:51.877Z,7.13
2023-05-25T09:50:24.323Z,6.25
2023-05-25T09:51:56.726Z,7.18
2023-05-25T09:53:28.956Z,6.70
2023-05-25T09:55:05.392Z,6.22
2023-05-25T09:56:37.907Z,6.80
2023-05-25T09:58:10.104Z,6.28
2023-05-25T09:59:43.206Z,6.47
2023-05-25T10:01:19.347Z,6.40
2023-05-25T10:02:51.988Z,6.00
2023-05-25T10:04:24.236Z,5.95
2023-05-25T10:05:56.905Z,5.75
2023-05-25T10:07:29.583Z,6.38
2023-05-25T10:09:02.036Z,6.85
2023-05-25T10:10:34.303Z,6.20
2023-05-25T10:12:07.161Z,5.88
2023-05-25T10:13:39.934Z,5.72
2023-05-25T10:15:13.693Z,6.07
2023-05-25T10:16:50.847Z,6.15
2023-05-25T10:18:26.658Z,6.25
2023-05-25T10:20:01.836Z,5.47
2023-05-25T10:21:34.834Z,6.25
2023-05-25T10:23:18.039Z,5.63
2023-05-25T10:25:25.210Z,5.15
2023-05-25T10:27:10.768Z,5.72
2023-05-25T10:28:51.091Z,5.20
2023-05-25T10:30:24.633Z,4.70
2023-05-25T10:31:57.824Z,5.05
2023-05-25T10:36:35.401Z,4.47
2023-05-25T10:38:07.860Z,4.60
2023-05-25T10:39:44.981Z,4.93
2023-05-25T10:41:17.252Z,4.95
2023-05-25T10:42:51.461Z,4.83
2023-05-25T10:44:24.114Z,4.80
2023-05-25T10:45:57.586Z,5.55
2023-05-25T10:47:32.800Z,5.50
2023-05-25T10:49:07.667Z,5.18
2023-05-25T10:50:40.022Z,5.95
2023-05-25T10:52:12.293Z,4.77
2023-05-25T10:53:46.342Z,5.00
2023-05-25T10:55:18.577Z,5.50
2023-05-25T10:57:10.506Z,4.95
2023-05-25T10:58:44.813Z,5.38
2023-05-25T11:00:17.441Z,5.30
2023-05-25T11:01:52.358Z,4.80
2023-05-25T11:03:44.717Z,4.78
2023-05-25T11:05:33.861Z,4.85
2023-05-25T11:07:09.093Z,4.68
2023-05-25T11:09:00.667Z,4.65
2023-05-25T11:10:48.689Z,4.80
2023-05-25T11:12:22.315Z,4.65
2023-05-25T11:13:54.379Z,4.85
2023-05-25T11:15:30.583Z,5.18
2023-05-25T11:17:15.451Z,4.63
2023-05-25T11:18:56.224Z,4.55
2023-05-25T11:20:30.514Z,5.05
2023-05-25T11:22:22.845Z,4.72
2023-05-25T11:23:57.993Z,4.32
2023-05-25T11:25:40.642Z,4.15
2023-05-25T11:27:13.272Z,4.07
2023-05-25T11:28:48.433Z,3.85
2023-05-25T11:30:20.604Z,4.38
2023-05-25T11:31:55.435Z,4.05
2023-05-25T11:33:28.257Z,4.78
2023-05-25T11:35:01.134Z,4.65
2023-05-25T11:36:35.822Z,4.68
2023-05-25T11:38:11.322Z,4.47
2023-05-25T11:39:50.526Z,4.45
2023-05-25T11:41:22.724Z,4.35
2023-05-25T11:42:56.228Z,4.20
2023-05-25T11:44:30.380Z,4.57
2023-05-25T11:46:03.422Z,4.45
2023-05-25T11:47:36.004Z,4.07
2023-05-25T11:49:10.250Z,4.28
2023-05-25T11:50:42.504Z,4.30
2023-05-25T11:52:16.029Z,4.28
2023-05-25T11:55:27.473Z,3.90
2023-05-25T11:57:00.491Z,4.67
2023-05-25T11:58:35.640Z,4.70
2023-05-25T12:00:10.022Z,4.70
2023-05-25T12:01:42.538Z,5.13
2023-05-25T12:03:33.739Z,4.85
2023-05-25T12:05:09.488Z,4.85
2023-05-25T12:06:43.157Z,5.10
2023-05-25T12:08:15.513Z,4.63
2023-05-25T12:09:47.991Z,4.93
2023-05-25T12:11:38.713Z,4.78
2023-05-25T12:13:11.819Z,4.72
2023-05-25T12:16:23.382Z,4.90
2023-05-25T12:17:56.657Z,5.18
2023-05-25T12:19:28.920Z,5.00
2023-05-25T12:21:01.198Z,5.03
2023-05-25T12:22:33.413Z,5.40
2023-05-25T12:24:06.584Z,5.10
2023-05-25T12:27:23.493Z,5.28
2023-05-25T12:29:06.573Z,5.53
2023-05-25T12:30:39.110Z,5.22
2023-05-25T12:32:11.378Z,5.00
2023-05-25T12:33:44.154Z,4.85
2023-05-25T12:35:16.430Z,5.22
2023-05-25T12:36:52.219Z,4.95
2023-05-25T12:38:24.630Z,4.95
2023-05-25T12:40:00.152Z,5.60
2023-05-25T12:41:35.283Z,4.95
2023-05-25T12:43:07.554Z,5.88
2023-05-25T12:44:39.758Z,5.10
2023-05-25T12:46:12.108Z,5.07
2023-05-25T12:47:46.269Z,4.85
2023-05-25T12:49:35.254Z,4.00
2023-05-25T12:51:07.453Z,3.92
2023-05-25T12:54:12.480Z,4.70
2023-05-25T12:55:44.810Z,4.53
2023-05-25T12:57:20.794Z,4.27
2023-05-25T12:58:56.064Z,4.00
2023-05-25T13:00:32.334Z,4.10
2023-05-25T13:02:07.661Z,3.80
2023-05-25T13:03:40.092Z,4.43
2023-05-25T13:05:38.790Z,4.07
2023-05-25T13:07:11.649Z,3.97
2023-05-25T13:08:43.863Z,3.85
2023-05-25T13:10:18.263Z,3.95
2023-05-25T13:11:50.633Z,3.58
2023-05-25T13:13:23.040Z,3.93
2023-05-25T13:14:55.376Z,3.75
2023-05-25T13:16:28.329Z,3.58
2023-05-25T13:18:00.824Z,3.97
2023-05-25T13:19:33.134Z,3.88
2023-05-25T13:21:05.365Z,4.25
2023-05-25T13:22:37.564Z,3.90
2023-05-25T13:24:09.964Z,4.55
2023-05-25T13:25:42.198Z,3.97
2023-05-25T13:27:14.338Z,4.40
2023-05-25T13:28:46.965Z,4.03
2023-05-25T13:30:21.160Z,4.00
2023-05-25T13:31:53.441Z,5.00
2023-05-25T13:33:25.664Z,3.83
2023-05-25T13:35:00.204Z,3.83
2023-05-25T13:36:35.415Z,3.72
2023-05-25T13:38:07.705Z,3.72
2023-05-25T13:39:39.982Z,3.92
2023-05-25T13:41:13.010Z,3.73
2023-05-25T13:42:45.177Z,3.88
2023-05-25T13:44:17.682Z,3.35
2023-05-25T13:45:50.322Z,4.07
2023-05-25T13:47:22.583Z,3.78
2023-05-25T13:48:54.843Z,3.60
2023-05-25T13:50:27.054Z,3.57
2023-05-25T13:51:59.401Z,3.97
2023-05-25T13:53:32.083Z,3.50
2023-05-25T13:55:04.670Z,3.95
2023-05-25T13:58:21.199Z,3.90
2023-05-25T13:59:53.484Z,3.95
2023-05-25T14:01:28.072Z,3.80
2023-05-25T14:03:00.407Z,3.70
2023-05-25T14:04:32.860Z,3.60
2023-05-25T14:06:05.241Z,3.90
2023-05-25T14:07:38.065Z,3.95
2023-05-25T14:09:12.092Z,3.63
2023-05-25T14:10:45.217Z,3.60
2023-05-25T14:12:17.642Z,3.50
2023-05-25T14:13:49.757Z,3.40
2023-05-25T14:15:21.901Z,3.50
2023-05-25T14:16:54.124Z,3.30
2023-05-25T14:18:26.272Z,3.38
2023-05-25T14:19:59.231Z,3.50
2023-05-25T14:21:31.865Z,3.35
2023-05-25T14:23:04.088Z,3.55
2023-05-25T14:24:36.292Z,4.20
2023-05-25T14:27:51.726Z,4.05
2023-05-25T14:29:23.941Z,3.90
2023-05-25T14:30:56.592Z,3.58
2023-05-25T14:32:28.852Z,4.22
2023-05-25T14:34:01.090Z,3.97
2023-05-25T14:35:33.331Z,4.07
2023-05-25T14:37:05.492Z,3.57
2023-05-25T14:38:37.669Z,3.80
2023-05-25T14:40:10.399Z,3.70
2023-05-25T14:41:42.593Z,3.47
2023-05-25T14:43:14.787Z,3.53
2023-05-25T14:44:47.086Z,3.67
2023-05-25T14:46:19.754Z,3.55
2023-05-25T14:48:00.758Z,3.78
2023-05-25T14:49:40.334Z,3.67
2023-05-25T14:51:12.497Z,3.53
2023-05-25T14:52:44.728Z,3.55
2023-05-25T14:54:17.158Z,3.58
2023-05-25T14:55:49.270Z,3.42
2023-05-25T14:57:21.506Z,3.30
2023-05-25T14:58:53.688Z,3.60
2023-05-25T15:00:26.818Z,3.47
2023-05-25T15:01:59.036Z,3.43
2023-05-25T15:03:31.392Z,3.60
2023-05-25T15:05:03.634Z,3.83
2023-05-25T15:06:37.299Z,3.57
2023-05-25T15:08:09.553Z,3.83
2023-05-25T15:09:42.727Z,3.70
2023-05-25T15:12:46.863Z,3.63
2023-05-25T15:14:19.033Z,3.20
2023-05-25T15:15:55.001Z,3.30
2023-05-25T15:17:27.224Z,3.85
2023-05-25T15:18:59.466Z,3.70
2023-05-25T15:20:33.012Z,3.40
2023-05-25T15:22:05.331Z,3.50
2023-05-25T15:23:37.839Z,3.70
2023-05-25T15:25:10.094Z,3.78
2023-05-25T15:26:42.468Z,3.33
2023-05-25T15:28:14.773Z,3.50
2023-05-25T15:29:47.740Z,4.20
2023-05-25T15:31:19.935Z,3.40
2023-05-25T15:32:52.217Z,3.77
2023-05-25T15:34:24.458Z,3.92
2023-05-25T15:35:56.697Z,3.10
2023-05-25T15:37:30.543Z,2.70
2023-05-25T15:39:02.767Z,2.67
2023-05-25T15:40:37.460Z,2.63
2023-05-25T15:42:09.655Z,2.60
2023-05-25T15:43:41.912Z,2.53
2023-05-25T15:45:14.105Z,2.80
2023-05-25T15:46:46.465Z,2.53
2023-05-25T15:48:18.830Z,2.65
2023-05-25T15:49:51.051Z,2.78
2023-05-25T15:51:23.287Z,2.65
2023-05-25T15:52:55.487Z,2.87
2023-05-25T15:54:27.584Z,2.78
2023-05-25T15:55:59.829Z,2.63
2023-05-25T15:57:32.067Z,2.40
2023-05-25T15:59:05.280Z,2.58
2023-05-25T16:02:17.164Z,2.20
2023-05-25T16:03:49.558Z,2.17
2023-05-25T16:05:21.776Z,2.20
2023-05-25T16:06:53.999Z,2.03
2023-05-25T16:08:26.387Z,2.10
2023-05-25T16:09:58.576Z,2.20
2023-05-25T16:11:32.318Z,1.80
2023-05-25T16:13:04.588Z,1.90
2023-05-25T16:14:36.820Z,2.00
2023-05-25T16:16:09.240Z,2.00
2023-05-25T16:17:41.557Z,2.30
2023-05-25T16:19:14.209Z,2.17
2023-05-25T16:20:46.780Z,2.20
2023-05-25T16:22:19.035Z,2.03
2023-05-25T16:23:51.669Z,2.20
2023-05-25T16:25:23.795Z,2.17
2023-05-25T16:26:57.998Z,2.03
2023-05-25T16:28:30.258Z,1.90
2023-05-25T16:30:02.465Z,1.80
2023-05-25T16:31:35.139Z,2.15
2023-05-25T16:33:07.497Z,2.25
2023-05-25T16:34:39.728Z,2.30
2023-05-25T16:36:13.953Z,2.25
2023-05-25T16:37:46.293Z,2.20
2023-05-25T16:39:20.936Z,2.10
2023-05-25T16:40:53.161Z,2.20
2023-05-25T16:42:26.764Z,2.50
2023-05-25T16:43:59.302Z,2.47
2023-05-25T16:45:31.572Z,2.90
2023-05-25T16:47:03.807Z,2.70
2023-05-25T16:48:36.054Z,3.05
2023-05-25T16:50:08.795Z,2.88
2023-05-25T16:51:41.189Z,2.90
2023-05-25T16:53:13.452Z,2.78
2023-05-25T16:54:45.769Z,3.20
2023-05-25T16:56:18.762Z,2.90
2023-05-25T16:57:51.025Z,2.90
2023-05-25T16:59:23.236Z,3.03
2023-05-25T17:02:56.438Z,3.28
2023-05-25T17:04:28.642Z,3.50
2023-05-25T17:06:00.930Z,3.17
2023-05-25T17:07:36.606Z,3.50
2023-05-25T17:09:09.646Z,3.35
2023-05-25T17:10:43.896Z,3.45
2023-05-25T17:12:16.235Z,3.47
2023-05-25T17:13:48.564Z,4.03
2023-05-25T17:15:20.935Z,3.78
2023-05-25T17:16:53.229Z,3.90
2023-05-25T17:18:25.493Z,3.95
2023-05-25T17:19:57.723Z,3.70
2023-05-25T17:21:30.145Z,4.07
2023-05-25T17:23:02.359Z,4.43
2023-05-25T17:24:34.527Z,4.18
2023-05-25T17:26:06.704Z,4.57
2023-05-25T17:27:38.917Z,4.20
2023-05-25T17:29:11.264Z,4.00
2023-05-25T17:30:43.461Z,3.90
2023-05-25T17:33:48.485Z,3.95
2023-05-25T17:35:20.771Z,4.00
2023-05-25T17:36:53.023Z,4.45
2023-05-25T17:38:25.778Z,4.45
2023-05-25T17:39:58.017Z,4.38
2023-05-25T17:41:31.233Z,4.13
2023-05-25T17:43:03.673Z,3.80
2023-05-25T17:44:40.497Z,3.70
2023-05-25T17:46:12.758Z,4.22
2023-05-25T17:47:45.177Z,4.23
2023-05-25T17:49:17.659Z,4.43
2023-05-25T17:50:49.945Z,4.10
2023-05-25T17:52:22.187Z,4.18
2023-05-25T17:53:54.375Z,3.80
2023-05-25T17:55:27.437Z,4.05
2023-05-25T17:56:59.772Z,4.07
2023-05-25T17:58:34.572Z,4.13
2023-05-25T18:00:07.466Z,4.07
2023-05-25T18:01:40.194Z,3.72
2023-05-25T18:03:12.645Z,3.75
2023-05-25T18:06:16.938Z,3.70
2023-05-25T18:07:49.160Z,4.18
2023-05-25T18:09:21.598Z,4.00
2023-05-25T18:10:53.872Z,4.70
2023-05-25T18:12:26.335Z,4.30
2023-05-25T18:13:58.531Z,4.15
2023-05-25T18:15:30.669Z,3.90
2023-05-25T19:09:44.390Z,4.93
2023-05-25T19:11:17.100Z,4.43
2023-05-25T19:12:49.255Z,4.05
2023-05-25T19:14:21.420Z,4.53
2023-05-25T19:15:53.624Z,4.22
2023-05-25T19:17:25.936Z,4.22
2023-05-25T19:18:58.132Z,3.90
2023-05-25T19:20:32.972Z,4.05
2023-05-25T19:22:06.789Z,4.28
2023-05-25T19:23:39.058Z,4.80
2023-05-25T19:25:11.271Z,4.07
2023-05-25T19:26:43.426Z,4.00
2023-05-25T19:28:15.702Z,4.03
2023-05-25T19:29:48.391Z,4.05
2023-05-25T19:31:21.935Z,4.07
2023-05-25T19:32:54.366Z,3.88
2023-05-25T19:34:26.595Z,4.87
2023-05-25T19:36:00.071Z,4.25
2023-05-25T19:37:32.246Z,4.20
2023-05-25T19:39:05.343Z,4.23
2023-05-25T19:40:37.599Z,4.68
2023-05-25T19:42:09.923Z,4.32
2023-05-25T19:43:42.378Z,4.28
2023-05-25T19:45:14.527Z,4.33
2023-05-25T19:46:46.676Z,4.00
2023-05-25T19:48:20.666Z,3.90
2023-05-25T19:49:53.659Z,4.07
2023-05-25T19:51:26.221Z,3.95
2023-05-25T19:53:01.531Z,4.03
2023-05-25T19:54:33.804Z,4.60
2023-05-25T19:56:06.303Z,4.03
2023-05-25T19:57:38.949Z,3.78
2023-05-25T19:59:11.128Z,4.47
2023-05-25T20:00:43.356Z,4.00
2023-05-25T20:02:15.623Z,4.25
2023-05-25T20:03:47.932Z,4.03
2023-05-25T20:05:22.431Z,4.00
2023-05-25T20:06:54.896Z,3.90
2023-05-25T20:08:27.821Z,4.13
2023-05-25T20:10:00.239Z,4.07
2023-05-25T20:11:32.526Z,4.37
2023-05-25T20:14:38.627Z,4.00
2023-05-25T20:16:10.894Z,4.23
2023-05-25T20:17:43.141Z,4.22
2023-05-25T20:19:15.685Z,4.13
2023-05-25T20:20:47.924Z,4.00
2023-05-25T20:22:20.230Z,3.45
2023-05-25T20:23:52.462Z,4.00
2023-05-25T20:25:24.659Z,4.00
2023-05-25T20:27:00.374Z,3.80
2023-05-25T20:28:32.553Z,4.10
2023-05-25T20:30:08.458Z,3.95
2023-05-25T20:31:40.879Z,5.13
2023-05-25T20:33:13.136Z,3.83
2023-05-25T20:34:45.375Z,4.28
2023-05-25T20:36:17.740Z,4.18
2023-05-25T20:37:49.969Z,4.00
2023-05-25T20:39:22.148Z,4.43
2023-05-25T20:40:54.351Z,4.32
2023-05-25T20:42:26.580Z,4.15
2023-05-25T20:43:58.906Z,4.32
2023-05-25T20:45:31.423Z,4.40
2023-05-25T20:48:40.219Z,4.53
2023-05-25T20:50:13.396Z,4.65
2023-05-25T20:51:50.264Z,4.40
2023-05-25T20:53:22.758Z,4.35
2023-05-25T20:54:55.066Z,4.07
2023-05-25T20:56:27.863Z,4.10
2023-05-25T20:58:01.427Z,4.70
2023-05-25T20:59:33.647Z,4.38
2023-05-25T21:01:06.519Z,4.07
2023-05-25T21:02:38.856Z,4.20
2023-05-25T21:04:11.347Z,4.10
2023-05-25T21:05:43.812Z,4.33
2023-05-25T21:07:16.190Z,4.53
2023-05-25T21:08:48.376Z,4.68
2023-05-25T21:10:20.543Z,4.80
2023-05-25T21:11:52.625Z,4.70
2023-05-25T21:13:24.817Z,5.28
2023-05-25T21:14:57.024Z,5.65
2023-05-25T21:16:29.421Z,5.00
2023-05-25T21:18:03.813Z,4.40
2023-05-25T21:19:36.068Z,4.18
2023-05-25T21:21:08.176Z,4.25
2023-05-25T21:22:40.369Z,4.28
2023-05-25T21:24:14.766Z,4.15
2023-05-25T21:25:47.207Z,4.32
2023-05-25T21:27:19.658Z,3.92
2023-05-25T21:28:51.846Z,4.40
2023-05-25T21:30:24.803Z,4.35
2023-05-25T21:31:57.297Z,4.07
2023-05-25T21:33:31.285Z,4.33
2023-05-25T21:36:36.728Z,4.30
2023-05-25T21:38:09.348Z,4.40
2023-05-25T21:39:41.509Z,4.05
2023-05-25T21:41:13.693Z,4.03
2023-05-25T21:42:45.925Z,4.38
2023-05-25T21:44:20.996Z,4.35
2023-05-25T21:45:53.233Z,4.35
2023-05-25T21:47:25.570Z,4.03
2023-05-25T21:48:57.824Z,4.22
2023-05-25T21:50:30.081Z,4.10
2023-05-25T21:52:02.300Z,4.07
2023-05-25T21:53:34.426Z,4.03
2023-05-25T21:55:07.046Z,4.30
2023-05-25T21:56:39.077Z,4.18
2023-05-25T21:58:11.557Z,4.20
2023-05-25T21:59:43.758Z,4.30
2023-05-25T22:01:16.036Z,4.18
2023-05-25T22:02:49.162Z,3.90
2023-05-25T22:04:21.505Z,3.75
2023-05-25T22:05:53.634Z,3.97
2023-05-25T22:07:25.795Z,5.10
2023-05-25T22:08:58.017Z,4.13
2023-05-25T22:12:02.982Z,4.20
2023-05-25T22:13:35.355Z,4.10
2023-05-25T22:15:08.160Z,3.78
2023-05-25T22:16:40.335Z,4.20